createdAt,value
2023-04-28T05:03:37.419Z,20.96
2023-04-28T05:04:38.390Z,1.29
2023-04-28T05:05:38.250Z,1.35
2023-04-28T05:06:37.228Z,1.18
2023-04-28T05:07:38.216Z,1.15
2023-04-28T05:08:37.218Z,1.00
2023-04-28T05:09:38.202Z,1.23
2023-04-28T05:10:38.191Z,1.33
2023-04-28T05:11:38.209Z,1.20
2023-04-28T05:12:38.180Z,1.16
2023-04-28T05:13:38.247Z,1.00
2023-04-28T05:14:38.183Z,1.03
2023-04-28T05:15:38.153Z,1.25
2023-04-28T05:16:37.168Z,1.27
2023-04-28T05:17:38.204Z,1.43
2023-04-28T05:18:37.165Z,1.14
2023-04-28T05:19:37.156Z,1.12
2023-04-28T05:20:38.130Z,1.10
2023-04-28T05:21:37.138Z,1.15
2023-04-28T05:22:37.168Z,0.94
2023-04-28T05:23:38.206Z,1.10
2023-04-28T05:24:38.240Z,1.36
2023-04-28T05:25:38.279Z,1.00
2023-04-28T05:26:37.303Z,1.36
2023-04-28T05:27:37.326Z,1.32
2023-04-28T05:28:38.351Z,1.16
2023-04-28T05:29:38.398Z,1.00
2023-04-28T05:30:37.436Z,1.77
2023-04-28T05:31:38.532Z,1.30
2023-04-28T05:32:38.607Z,1.28
2023-04-28T05:33:38.566Z,1.40
2023-04-28T05:34:37.593Z,1.05
2023-04-28T05:35:37.686Z,1.44
2023-04-28T05:36:37.701Z,1.50
2023-04-28T05:37:38.726Z,1.44
2023-04-28T05:38:37.782Z,1.88
2023-04-28T05:39:37.781Z,1.88
2023-04-28T05:40:38.805Z,1.46
2023-04-28T05:41:37.862Z,1.81
2023-04-28T05:42:38.874Z,2.06
2023-04-28T05:43:37.914Z,1.71
2023-04-28T05:44:40.155Z,1.69
2023-04-28T05:45:38.985Z,2.23
2023-04-28T05:46:39.052Z,1.78
2023-04-28T05:47:37.939Z,2.68
2023-04-28T05:48:38.106Z,2.26
2023-04-28T05:49:38.900Z,1.97
2023-04-28T05:50:39.213Z,2.52
2023-04-28T05:51:38.961Z,2.96
2023-04-28T05:52:38.881Z,2.78
2023-04-28T05:53:37.877Z,3.28
2023-04-28T05:54:37.877Z,3.52
2023-04-28T05:55:38.873Z,3.30
2023-04-28T05:56:38.864Z,3.66
2023-04-28T05:57:49.287Z,3.97
2023-04-28T05:58:38.840Z,4.18
2023-04-28T05:59:38.839Z,3.96
2023-04-28T06:00:38.846Z,4.47
2023-04-28T06:01:37.840Z,5.62
2023-04-28T06:02:38.932Z,6.75
2023-04-28T06:03:39.291Z,7.42
2023-04-28T06:04:38.944Z,6.04
2023-04-28T06:05:39.088Z,4.48
2023-04-28T06:06:37.972Z,5.99
2023-04-28T06:07:38.922Z,4.35
2023-04-28T06:08:38.792Z,4.80
2023-04-28T06:09:38.769Z,4.65
2023-04-28T06:10:37.761Z,4.51
2023-04-28T06:11:38.794Z,4.54
2023-04-28T06:12:38.788Z,4.79
2023-04-28T06:13:38.772Z,4.87
2023-04-28T06:14:37.853Z,4.17
2023-04-28T06:15:37.875Z,5.05
2023-04-28T06:16:37.909Z,3.71
2023-04-28T06:17:38.943Z,4.61
2023-04-28T06:18:38.987Z,4.19
2023-04-28T06:19:38.046Z,3.57
2023-04-28T06:20:39.065Z,4.15
2023-04-28T06:21:38.132Z,3.91
2023-04-28T06:22:39.173Z,4.05
2023-04-28T06:23:38.375Z,3.92
2023-04-28T06:24:39.295Z,3.66
2023-04-28T06:25:39.300Z,4.17
2023-04-28T06:26:39.353Z,4.86
2023-04-28T06:27:39.397Z,3.66
2023-04-28T06:28:39.449Z,4.18
2023-04-28T06:29:39.477Z,3.93
2023-04-28T06:30:38.547Z,3.59
2023-04-28T06:31:38.659Z,3.51
2023-04-28T06:32:39.699Z,3.71
2023-04-28T06:33:38.654Z,3.89
2023-04-28T06:34:39.681Z,3.73
2023-04-28T06:35:39.699Z,4.69
2023-04-28T06:36:39.798Z,3.84
2023-04-28T06:37:38.798Z,4.19
2023-04-28T06:38:39.844Z,5.53
2023-04-28T06:39:39.925Z,4.77
2023-04-28T06:40:39.919Z,5.08
2023-04-28T06:41:38.982Z,6.27
2023-04-28T06:42:39.015Z,4.94
2023-04-28T06:43:39.029Z,5.60
2023-04-28T06:44:40.069Z,4.55
2023-04-28T06:45:40.083Z,5.27
2023-04-28T06:46:39.174Z,5.61
2023-04-28T06:47:40.150Z,4.50
2023-04-28T06:48:40.135Z,6.02
2023-04-28T06:49:44.849Z,6.95
2023-04-28T06:50:42.323Z,5.57
2023-04-28T06:51:39.385Z,6.97
2023-04-28T06:52:39.862Z,6.44
2023-04-28T06:53:40.383Z,6.28
2023-04-28T06:54:40.640Z,6.18
2023-04-28T06:55:40.360Z,5.52
2023-04-28T06:56:39.347Z,5.15
2023-04-28T06:57:40.331Z,5.30
2023-04-28T06:58:40.327Z,5.31
2023-04-28T06:59:40.390Z,5.73
2023-04-28T07:00:39.336Z,5.79
2023-04-28T07:01:40.308Z,6.04
2023-04-28T07:02:40.433Z,5.21
2023-04-28T07:03:40.410Z,4.91
2023-04-28T07:04:39.276Z,4.71
2023-04-28T07:05:40.557Z,5.23
2023-04-28T07:06:40.285Z,5.47
2023-04-28T07:07:40.282Z,4.76
2023-04-28T07:08:40.253Z,5.24
2023-04-28T07:09:40.244Z,6.41
2023-04-28T07:10:39.262Z,5.17
2023-04-28T07:11:39.269Z,4.81
2023-04-28T07:12:40.268Z,4.92
2023-04-28T07:13:40.247Z,4.59
2023-04-28T07:14:40.231Z,5.63
2023-04-28T07:15:39.227Z,4.53
2023-04-28T07:16:40.248Z,4.98
2023-04-28T07:17:39.384Z,5.82
2023-04-28T07:18:40.184Z,5.02
2023-04-28T07:19:39.211Z,4.99
2023-04-28T07:20:40.221Z,5.23
2023-04-28T07:21:40.260Z,5.20
2023-04-28T07:22:40.307Z,4.78
2023-04-28T07:23:40.368Z,4.77
2023-04-28T07:24:40.423Z,4.76
2023-04-28T07:25:40.498Z,5.14
2023-04-28T07:26:40.516Z,5.28
2023-04-28T07:27:40.581Z,3.99
2023-04-28T07:28:40.580Z,4.02
2023-04-28T07:29:40.601Z,3.98
2023-04-28T07:30:39.674Z,4.50
2023-04-28T07:31:40.724Z,4.28
2023-04-28T07:32:39.765Z,5.31
2023-04-28T07:33:40.804Z,4.59
2023-04-28T07:34:40.823Z,4.10
2023-04-28T07:35:39.882Z,5.25
2023-04-28T07:36:39.926Z,4.48
2023-04-28T07:37:41.001Z,4.63
2023-04-28T07:38:41.029Z,5.42
2023-04-28T07:39:41.069Z,4.77
2023-04-28T07:40:40.132Z,4.65
2023-04-28T07:41:41.155Z,5.03
2023-04-28T07:42:40.187Z,4.88
2023-04-28T07:43:41.316Z,4.08
2023-04-28T07:44:41.277Z,5.35
2023-04-28T07:45:41.513Z,5.51
2023-04-28T07:46:41.330Z,4.99
2023-04-28T07:47:41.437Z,5.05
2023-04-28T07:48:40.389Z,5.23
2023-04-28T07:49:42.186Z,4.28
2023-04-28T07:50:41.507Z,4.28
2023-04-28T07:51:41.809Z,4.30
2023-04-28T07:52:41.567Z,5.02
2023-04-28T07:53:41.587Z,3.68
2023-04-28T07:54:41.931Z,4.10
2023-04-28T07:55:42.585Z,3.74
2023-04-28T07:56:42.578Z,3.88
2023-04-28T07:57:41.796Z,3.82
2023-04-28T07:58:40.770Z,4.35
2023-04-28T07:59:41.259Z,3.81
2023-04-28T08:00:41.351Z,4.36
2023-04-28T08:01:41.869Z,3.65
2023-04-28T08:02:41.052Z,3.88
2023-04-28T08:03:43.061Z,3.98
2023-04-28T08:04:42.354Z,3.91
2023-04-28T08:05:42.305Z,3.10
2023-04-28T08:06:42.212Z,3.50
2023-04-28T08:07:42.266Z,3.67
2023-04-28T08:08:41.291Z,3.85
2023-04-28T08:09:42.340Z,3.76
2023-04-28T08:10:41.386Z,3.46
2023-04-28T08:11:41.452Z,3.48
2023-04-28T08:12:41.490Z,4.02
2023-04-28T08:13:41.577Z,3.81
2023-04-28T08:14:42.616Z,2.96
2023-04-28T08:15:42.718Z,3.81
2023-04-28T08:16:41.723Z,3.67
2023-04-28T08:17:41.796Z,3.44
2023-04-28T08:18:41.863Z,4.10
2023-04-28T08:19:41.863Z,3.70
2023-04-28T08:20:42.916Z,3.44
2023-04-28T08:21:42.962Z,3.41
2023-04-28T08:22:42.040Z,3.43
2023-04-28T08:23:43.083Z,3.03
2023-04-28T08:24:42.140Z,3.69
2023-04-28T08:25:42.176Z,3.89
2023-04-28T08:26:43.230Z,3.60
2023-04-28T08:27:43.310Z,3.33
2023-04-28T08:28:43.401Z,3.73
2023-04-28T08:29:42.359Z,3.44
2023-04-28T08:30:43.388Z,3.41
2023-04-28T08:31:42.534Z,3.46
2023-04-28T08:32:43.512Z,3.31
2023-04-28T08:33:43.505Z,3.18
2023-04-28T08:34:43.554Z,3.42
2023-04-28T08:35:43.577Z,3.41
2023-04-28T08:36:43.626Z,2.97
2023-04-28T08:37:43.661Z,2.74
2023-04-28T08:38:43.691Z,3.46
2023-04-28T08:39:43.753Z,3.10
2023-04-28T08:40:43.767Z,3.52
2023-04-28T08:41:43.793Z,3.32
2023-04-28T08:42:42.841Z,3.54
2023-04-28T08:43:42.876Z,3.26
2023-04-28T08:44:43.172Z,3.29
2023-04-28T08:45:43.916Z,3.92
2023-04-28T08:46:44.004Z,3.76
2023-04-28T08:47:44.074Z,4.17
2023-04-28T08:48:43.998Z,3.61
2023-04-28T08:49:44.057Z,3.65
2023-04-28T08:50:44.121Z,4.52
2023-04-28T08:51:44.148Z,4.08
2023-04-28T08:52:44.200Z,5.12
2023-04-28T08:54:11.626Z,3.89
2023-04-28T08:54:44.219Z,4.38
2023-04-28T08:55:44.221Z,4.45
2023-04-28T08:56:44.206Z,5.20
2023-04-28T08:57:44.254Z,4.95
2023-04-28T08:58:43.183Z,5.08
2023-04-28T08:59:44.197Z,5.02
2023-04-28T09:00:43.166Z,5.14
2023-04-28T09:01:44.163Z,4.48
2023-04-28T09:02:43.380Z,3.98
2023-04-28T09:03:44.304Z,5.12
2023-04-28T09:04:44.316Z,4.39
2023-04-28T09:05:44.258Z,4.00
2023-04-28T09:06:43.196Z,3.92
2023-04-28T09:07:44.148Z,4.38
2023-04-28T09:08:43.129Z,5.07
2023-04-28T09:09:43.123Z,3.61
2023-04-28T09:10:44.139Z,3.05
2023-04-28T09:11:44.091Z,2.97
2023-04-28T09:12:43.095Z,3.75
2023-04-28T09:13:43.119Z,3.80
2023-04-28T09:14:43.103Z,3.33
2023-04-28T09:15:44.073Z,3.01
2023-04-28T09:16:44.122Z,2.76
2023-04-28T09:17:43.158Z,3.14
2023-04-28T09:18:43.052Z,3.38
2023-04-28T09:19:44.083Z,2.91
2023-04-28T09:20:44.059Z,2.97
2023-04-28T09:21:43.044Z,2.40
2023-04-28T09:22:44.057Z,3.01
2023-04-28T09:23:43.045Z,3.39
2023-04-28T09:24:44.035Z,3.70
2023-04-28T09:25:44.019Z,2.89
2023-04-28T09:26:44.017Z,3.70
2023-04-28T09:27:44.013Z,2.71
2023-04-28T09:28:44.014Z,3.82
2023-04-28T09:29:44.052Z,3.00
2023-04-28T09:30:44.103Z,3.60
2023-04-28T09:31:43.210Z,3.25
2023-04-28T09:32:44.233Z,3.17
2023-04-28T09:33:44.177Z,2.83
2023-04-28T09:34:43.314Z,3.63
2023-04-28T09:35:44.386Z,3.17
2023-04-28T09:36:43.425Z,2.93
2023-04-28T09:37:43.509Z,2.75
2023-04-28T09:38:44.524Z,2.81
2023-04-28T09:39:44.602Z,2.51
2023-04-28T09:40:44.643Z,2.82
2023-04-28T09:41:43.707Z,2.13
2023-04-28T09:42:43.760Z,2.96
2023-04-28T09:43:44.775Z,3.50
2023-04-28T09:44:44.837Z,2.93
2023-04-28T09:45:44.890Z,2.55
2023-04-28T09:46:44.923Z,2.59
2023-04-28T09:47:45.026Z,2.58
2023-04-28T09:48:45.044Z,5.29
2023-04-28T09:49:45.215Z,4.55
2023-04-28T09:50:45.202Z,4.44
2023-04-28T09:51:45.169Z,4.69
2023-04-28T09:52:44.245Z,4.73
2023-04-28T09:53:44.208Z,4.80
2023-04-28T09:54:45.225Z,4.34
2023-04-28T09:55:45.244Z,4.49
2023-04-28T09:56:45.317Z,5.17
2023-04-28T09:57:45.796Z,3.66
2023-04-28T09:58:45.356Z,3.98
2023-04-28T09:59:45.400Z,4.50
2023-04-28T10:00:44.484Z,4.97
2023-04-28T10:01:44.552Z,4.24
2023-04-28T10:02:44.524Z,4.29
2023-04-28T10:03:45.672Z,4.52
2023-04-28T10:04:45.793Z,5.54
2023-04-28T10:05:44.725Z,4.77
2023-04-28T10:06:45.619Z,4.12
2023-04-28T10:07:45.646Z,4.55
2023-04-28T10:08:45.662Z,4.70
2023-04-28T10:09:45.733Z,4.61
2023-04-28T10:10:44.752Z,3.42
2023-04-28T10:11:44.791Z,4.15
2023-04-28T10:12:44.870Z,4.43
2023-04-28T10:13:45.855Z,3.56
2023-04-28T10:14:45.192Z,3.83
2023-04-28T10:15:47.528Z,4.13
2023-04-28T10:16:45.916Z,3.54
2023-04-28T10:17:44.966Z,2.81
2023-04-28T10:18:44.919Z,3.39
2023-04-28T10:19:44.890Z,3.84
2023-04-28T10:20:45.923Z,4.18
2023-04-28T10:21:47.513Z,3.63
2023-04-28T10:22:44.916Z,3.17
2023-04-28T10:23:45.886Z,4.47
2023-04-28T10:24:44.853Z,3.60
2023-04-28T10:25:45.908Z,3.51
2023-04-28T10:26:45.846Z,3.90
2023-04-28T10:27:45.893Z,3.34
2023-04-28T10:28:44.847Z,3.92
2023-04-28T10:29:44.845Z,3.42
2023-04-28T10:30:45.825Z,3.13
2023-04-28T10:31:44.811Z,3.62
2023-04-28T10:32:45.807Z,3.50
2023-04-28T10:33:44.795Z,3.50
2023-04-28T10:34:45.803Z,3.24
2023-04-28T10:35:45.893Z,3.60
2023-04-28T10:36:45.772Z,2.95
2023-04-28T10:37:44.769Z,2.78
2023-04-28T10:38:44.765Z,3.00
2023-04-28T10:39:45.781Z,2.98
2023-04-28T10:40:44.929Z,3.41
2023-04-28T10:41:45.754Z,3.17
2023-04-28T10:42:45.757Z,3.48
2023-04-28T10:43:44.736Z,3.96
2023-04-28T10:44:44.772Z,3.45
2023-04-28T10:45:45.728Z,3.49
2023-04-28T10:46:45.744Z,2.99
2023-04-28T10:47:45.795Z,3.40
2023-04-28T10:48:45.688Z,3.49
2023-04-28T10:49:45.696Z,3.44
2023-04-28T10:50:44.683Z,2.77
2023-04-28T10:51:45.681Z,2.52
2023-04-28T10:52:45.701Z,3.02
2023-04-28T10:53:46.497Z,2.76
2023-04-28T10:54:44.810Z,2.59
2023-04-28T10:55:45.891Z,2.67
2023-04-28T10:56:45.866Z,2.65
2023-04-28T10:57:45.873Z,2.04
2023-04-28T10:58:45.914Z,2.44
2023-04-28T10:59:44.916Z,2.25
2023-04-28T11:00:45.958Z,2.67
2023-04-28T11:01:46.012Z,2.51
2023-04-28T11:02:45.253Z,3.01
2023-04-28T11:03:45.137Z,2.33
2023-04-28T11:04:46.232Z,2.89
2023-04-28T11:05:45.999Z,2.40
2023-04-28T11:06:46.177Z,3.39
2023-04-28T11:07:46.023Z,2.47
2023-04-28T11:08:45.061Z,2.58
2023-04-28T11:09:46.098Z,2.65
2023-04-28T11:10:46.096Z,2.69
2023-04-28T11:11:46.182Z,3.09
2023-04-28T11:12:46.150Z,2.43
2023-04-28T11:13:46.173Z,3.09
2023-04-28T11:14:46.223Z,2.99
2023-04-28T11:15:45.287Z,2.08
2023-04-28T11:16:46.329Z,2.58
2023-04-28T11:17:45.339Z,2.98
2023-04-28T11:18:46.366Z,3.06
2023-04-28T11:19:46.400Z,2.20
2023-04-28T11:20:46.455Z,2.53
2023-04-28T11:21:45.507Z,2.19
2023-04-28T11:22:46.565Z,2.46
2023-04-28T11:23:45.616Z,2.43
2023-04-28T11:24:45.719Z,2.75
2023-04-28T11:25:46.730Z,2.42
2023-04-28T11:26:46.770Z,2.18
2023-04-28T11:27:46.838Z,2.50
2023-04-28T11:28:45.868Z,2.14
2023-04-28T11:29:45.930Z,2.29
2023-04-28T11:30:45.983Z,2.21
2023-04-28T11:31:47.072Z,2.23
2023-04-28T11:32:46.114Z,2.31
2023-04-28T11:33:46.136Z,2.41
2023-04-28T11:34:46.200Z,2.37
2023-04-28T11:35:47.239Z,2.04
2023-04-28T11:36:46.323Z,2.07
2023-04-28T11:37:47.349Z,2.26
2023-04-28T11:38:47.368Z,2.31
2023-04-28T11:39:46.445Z,1.88
2023-04-28T11:40:47.495Z,1.90
2023-04-28T11:41:47.579Z,2.17
2023-04-28T11:42:47.604Z,2.19
2023-04-28T11:43:47.930Z,2.10
2023-04-28T11:44:47.717Z,2.03
2023-04-28T11:45:46.789Z,1.97
2023-04-28T11:46:47.790Z,1.94
2023-04-28T11:47:47.928Z,1.41
2023-04-28T11:48:46.916Z,1.60
2023-04-28T11:49:47.957Z,1.89
2023-04-28T11:50:48.011Z,1.72
2023-04-28T11:51:48.062Z,1.85
2023-04-28T11:52:47.135Z,1.86
2023-04-28T11:53:48.164Z,2.00
2023-04-28T11:54:48.223Z,2.01
2023-04-28T11:55:47.263Z,1.79
2023-04-28T11:56:48.311Z,1.92
2023-04-28T11:57:47.322Z,2.33
2023-04-28T11:58:47.362Z,2.23
2023-04-28T11:59:49.410Z,2.07
2023-04-28T12:00:48.556Z,2.06
2023-04-28T12:01:48.499Z,2.07
2023-04-28T12:02:48.739Z,2.67
2023-04-28T12:03:47.680Z,1.92
2023-04-28T12:04:47.669Z,1.93
2023-04-28T12:05:47.765Z,1.79
2023-04-28T12:06:47.781Z,1.75
2023-04-28T12:07:48.827Z,2.32
2023-04-28T12:08:47.886Z,2.50
2023-04-28T12:09:48.929Z,1.68
2023-04-28T12:10:49.381Z,1.79
2023-04-28T12:11:48.025Z,2.20
2023-04-28T12:12:52.693Z,1.61
2023-04-28T12:13:49.083Z,1.79
2023-04-28T12:14:48.061Z,1.60
2023-04-28T12:15:48.141Z,1.82
2023-04-28T12:16:49.074Z,2.16
2023-04-28T12:17:48.054Z,1.82
2023-04-28T12:18:48.049Z,2.16
2023-04-28T12:19:48.050Z,1.85
2023-04-28T12:20:49.067Z,2.55
2023-04-28T12:21:48.027Z,2.40
2023-04-28T12:22:48.086Z,1.92
2023-04-28T12:23:49.017Z,1.84
2023-04-28T12:24:48.014Z,2.23
2023-04-28T12:25:49.125Z,2.27
2023-04-28T12:26:48.126Z,1.97
2023-04-28T12:27:48.113Z,2.31
2023-04-28T12:28:48.160Z,2.35
2023-04-28T12:29:49.196Z,2.20
2023-04-28T12:30:49.212Z,2.46
2023-04-28T12:31:49.279Z,2.49
2023-04-28T12:32:49.271Z,1.96
2023-04-28T12:33:48.214Z,2.35
2023-04-28T12:34:48.244Z,2.20
2023-04-28T12:35:49.279Z,2.26
2023-04-28T12:36:49.315Z,2.04
2023-04-28T12:37:49.348Z,2.21
2023-04-28T12:38:49.386Z,1.82
2023-04-28T12:39:48.421Z,2.18
2023-04-28T12:40:48.471Z,1.72
2023-04-28T12:41:49.547Z,1.72
2023-04-28T12:42:49.530Z,1.72
2023-04-28T12:43:48.565Z,2.24
2023-04-28T12:44:49.594Z,2.30
2023-04-28T12:45:49.646Z,1.85
2023-04-28T12:46:48.676Z,2.27
2023-04-28T12:47:49.779Z,2.29
2023-04-28T12:48:48.727Z,2.22
2023-04-28T12:49:49.733Z,2.20
2023-04-28T12:50:48.794Z,2.15
2023-04-28T12:51:49.811Z,1.89
2023-04-28T12:52:48.855Z,1.86
2023-04-28T12:53:49.856Z,1.59
2023-04-28T12:54:49.901Z,1.73
2023-04-28T12:55:48.929Z,1.92
2023-04-28T12:56:49.970Z,1.82
2023-04-28T12:57:48.993Z,1.74
2023-04-28T12:58:49.023Z,1.66
2023-04-28T12:59:49.043Z,2.50
2023-04-28T13:00:50.065Z,2.21
2023-04-28T13:01:49.064Z,2.03
2023-04-28T13:02:50.206Z,1.65
2023-04-28T13:03:50.245Z,2.22
2023-04-28T13:04:50.165Z,1.57
2023-04-28T13:05:49.155Z,2.08
2023-04-28T13:06:49.203Z,1.64
2023-04-28T13:07:49.225Z,1.72
2023-04-28T13:08:50.263Z,1.55
2023-04-28T13:09:50.314Z,2.05
2023-04-28T13:10:50.320Z,2.02
2023-04-28T13:11:50.357Z,2.10
2023-04-28T13:12:49.377Z,1.79
2023-04-28T13:13:50.401Z,2.39
2023-04-28T13:14:50.439Z,1.88
2023-04-28T13:15:49.523Z,1.67
2023-04-28T13:16:50.493Z,1.96
2023-04-28T13:17:50.595Z,1.71
2023-04-28T13:18:50.542Z,1.48
2023-04-28T13:19:50.626Z,1.63
2023-04-28T13:20:50.604Z,1.67
2023-04-28T13:21:49.639Z,1.72
2023-04-28T13:22:50.639Z,2.05
2023-04-28T13:23:49.684Z,1.78
2023-04-28T13:24:50.714Z,1.35
2023-04-28T13:25:50.717Z,1.63
2023-04-28T13:26:50.752Z,1.67
2023-04-28T13:27:50.788Z,2.08
2023-04-28T13:28:49.819Z,1.67
2023-04-28T13:29:49.837Z,2.29
2023-04-28T13:30:49.856Z,1.77
2023-04-28T13:31:50.951Z,1.66
2023-04-28T13:32:49.983Z,1.65
2023-04-28T13:33:49.929Z,2.40
2023-04-28T13:34:50.947Z,1.27
2023-04-28T13:35:50.978Z,1.68
2023-04-28T13:36:50.980Z,1.73
2023-04-28T13:37:50.991Z,1.92
2023-04-28T13:38:51.008Z,1.33
2023-04-28T13:39:50.036Z,1.78
2023-04-28T13:40:50.060Z,1.73
2023-04-28T13:41:51.111Z,1.73
2023-04-28T13:42:50.125Z,1.76
2023-04-28T13:43:50.132Z,1.99
2023-04-28T13:44:51.180Z,1.34
2023-04-28T13:45:50.193Z,1.99
2023-04-28T13:46:50.225Z,1.47
2023-04-28T13:47:50.253Z,1.68
2023-04-28T13:48:50.279Z,1.33
2023-04-28T13:49:51.285Z,1.49
2023-04-28T13:50:50.306Z,1.94
2023-04-28T13:51:51.335Z,1.50
2023-04-28T13:52:50.344Z,1.36
2023-04-28T13:53:50.358Z,1.42
2023-04-28T13:54:51.399Z,1.52
2023-04-28T13:55:50.413Z,1.51
2023-04-28T13:56:51.449Z,1.29
2023-04-28T13:57:51.474Z,1.53
2023-04-28T13:58:50.482Z,1.35
2023-04-28T13:59:51.489Z,1.45
2023-04-28T14:00:51.552Z,2.00
2023-04-28T14:01:51.685Z,1.37
2023-04-28T14:02:50.790Z,1.35
2023-04-28T14:03:50.719Z,1.64
2023-04-28T14:04:51.197Z,1.18
2023-04-28T14:05:51.645Z,1.70
2023-04-28T14:06:51.667Z,1.22
2023-04-28T14:07:51.749Z,1.56
2023-04-28T14:08:51.768Z,1.50
2023-04-28T14:09:51.751Z,1.68
2023-04-28T14:10:51.798Z,1.51
2023-04-28T14:11:51.813Z,1.42
2023-04-28T14:12:51.854Z,1.46
2023-04-28T14:13:51.865Z,1.63
2023-04-28T14:14:51.895Z,1.85
2023-04-28T14:15:59.225Z,1.82
2023-04-28T14:16:51.973Z,1.99
2023-04-28T14:17:52.363Z,2.02
2023-04-28T14:18:51.917Z,1.55
2023-04-28T14:19:51.892Z,1.67
2023-04-28T14:20:50.904Z,1.74
2023-04-28T14:21:51.874Z,1.54
2023-04-28T14:22:51.863Z,1.93
2023-04-28T14:23:50.888Z,1.35
2023-04-28T14:24:50.855Z,1.60
2023-04-28T14:25:53.935Z,1.92
2023-04-28T14:26:51.844Z,1.44
2023-04-28T14:27:50.828Z,1.67
2023-04-28T14:28:51.822Z,1.64
2023-04-28T14:29:50.818Z,1.19
2023-04-28T14:30:50.845Z,1.52
2023-04-28T14:31:50.831Z,1.53
2023-04-28T14:32:51.841Z,1.82
2023-04-28T14:33:50.802Z,1.50
2023-04-28T14:34:50.806Z,1.33
2023-04-28T14:35:50.792Z,1.70
2023-04-28T14:36:51.814Z,1.57
2023-04-28T14:37:50.780Z,1.55
2023-04-28T14:38:50.773Z,1.65
2023-04-28T14:39:50.783Z,1.27
2023-04-28T14:40:51.750Z,1.96
2023-04-28T14:41:50.766Z,1.60
2023-04-28T14:42:51.744Z,1.95
2023-04-28T14:43:50.727Z,1.82
2023-04-28T14:44:52.142Z,1.67
2023-04-28T14:45:51.853Z,1.65
2023-04-28T14:46:51.848Z,1.52
2023-04-28T14:47:51.996Z,1.82
2023-04-28T14:48:50.907Z,1.50
2023-04-28T14:49:51.923Z,1.68
2023-04-28T14:50:51.949Z,1.49
2023-04-28T14:51:50.989Z,1.25
2023-04-28T14:52:52.019Z,1.63
2023-04-28T14:53:51.035Z,1.67
2023-04-28T14:54:52.078Z,1.69
2023-04-28T14:55:51.122Z,1.60
2023-04-28T14:56:52.141Z,1.77
2023-04-28T14:57:51.161Z,1.58
2023-04-28T14:58:52.205Z,1.58
2023-04-28T14:59:51.236Z,1.73
2023-04-28T15:00:51.275Z,1.60
2023-04-28T15:01:51.302Z,1.60
2023-04-28T15:02:51.458Z,1.31
2023-04-28T15:03:52.461Z,1.49
2023-04-28T15:04:52.757Z,1.42
2023-04-28T15:05:52.412Z,1.51
2023-04-28T15:06:52.412Z,1.53
2023-04-28T15:07:52.467Z,1.35
2023-04-28T15:08:52.472Z,1.57
2023-04-28T15:09:52.492Z,1.25
2023-04-28T15:10:52.521Z,1.88
2023-04-28T15:11:51.589Z,1.79
2023-04-28T15:12:51.585Z,1.54
2023-04-28T15:13:51.626Z,1.22
2023-04-28T15:14:52.684Z,1.50
2023-04-28T15:15:52.762Z,1.53
2023-04-28T15:16:52.694Z,1.49
2023-04-28T15:17:51.745Z,2.12
2023-04-28T15:18:52.763Z,1.47
2023-04-28T15:19:52.801Z,1.45
2023-04-28T15:20:52.851Z,1.62
2023-04-28T15:21:52.869Z,1.63
2023-04-28T15:22:52.898Z,1.65
2023-04-28T15:23:51.949Z,1.38
2023-04-28T15:24:52.977Z,1.33
2023-04-28T15:25:51.992Z,1.30
2023-04-28T15:26:52.032Z,1.48
2023-04-28T15:27:53.095Z,1.43
2023-04-28T15:28:52.081Z,1.14
2023-04-28T15:29:53.094Z,1.26
2023-04-28T15:32:26.239Z,1.48
2023-04-28T15:33:33.975Z,1.83
2023-04-28T15:34:41.814Z,1.51
2023-04-28T15:35:33.578Z,1.43
2023-04-28T15:36:36.695Z,1.76
2023-04-28T15:37:42.616Z,1.86
2023-04-28T15:38:52.346Z,1.81
2023-04-28T15:39:51.773Z,1.78
2023-04-28T15:40:53.483Z,1.51
2023-04-28T15:43:10.105Z,2.03
2023-04-28T15:44:10.581Z,1.41
2023-04-28T15:45:13.362Z,1.57
2023-04-28T15:46:18.166Z,1.38
2023-04-28T15:47:11.066Z,1.53
2023-04-28T15:48:11.294Z,1.39
2023-04-28T15:49:13.220Z,1.47
2023-04-28T15:50:10.594Z,1.44
2023-04-28T15:51:09.583Z,1.51
2023-04-28T15:52:10.528Z,1.08
2023-04-28T15:53:10.599Z,1.39
2023-04-28T15:54:10.609Z,1.17
2023-04-28T15:55:14.021Z,1.17
2023-04-28T15:56:09.515Z,1.47
2023-04-28T15:57:09.529Z,1.24
2023-04-28T15:58:10.585Z,1.46
2023-04-28T15:59:09.721Z,1.36
2023-04-28T16:00:10.670Z,1.34
2023-04-28T16:01:10.717Z,1.76
2023-04-28T16:02:09.809Z,1.51
2023-04-28T16:03:11.082Z,1.43
2023-04-28T16:04:10.142Z,1.18
2023-04-28T16:05:14.420Z,1.83
2023-04-28T16:06:25.710Z,1.60
2023-04-28T16:07:44.414Z,2.31
2023-04-28T16:08:48.971Z,1.57
2023-04-28T16:09:48.536Z,1.32
2023-04-28T16:10:56.258Z,1.65
2023-04-28T16:11:56.951Z,1.68
2023-04-28T16:12:49.561Z,1.49
2023-04-28T16:13:49.545Z,1.71
2023-04-28T16:14:49.722Z,1.66
2023-04-28T16:15:49.536Z,1.57
2023-04-28T16:16:48.875Z,1.80
2023-04-28T16:17:49.512Z,1.78
2023-04-28T16:18:48.501Z,1.36
2023-04-28T16:19:49.482Z,1.21
2023-04-28T16:20:48.486Z,1.67
2023-04-28T16:21:48.534Z,1.44
2023-04-28T16:22:48.938Z,1.16
2023-04-28T16:23:55.425Z,1.53
2023-04-28T16:26:21.762Z,1.99
2023-04-28T16:27:29.491Z,1.51
2023-04-28T16:29:48.337Z,1.82
2023-04-28T16:30:59.014Z,1.83
2023-04-28T16:31:48.080Z,1.56
2023-04-28T16:32:48.022Z,1.43
2023-04-28T16:33:47.950Z,1.61
2023-04-28T16:34:48.039Z,1.52
2023-04-28T16:35:47.950Z,1.25
2023-04-28T16:36:47.903Z,1.60
2023-04-28T16:37:47.030Z,1.20
2023-04-28T16:38:47.924Z,1.37
2023-04-28T16:39:46.896Z,1.64
2023-04-28T16:40:47.910Z,1.52
2023-04-28T16:41:48.060Z,1.28
2023-04-28T16:42:47.864Z,1.41
2023-04-28T16:43:46.876Z,1.02
2023-04-28T16:44:47.867Z,1.37
2023-04-28T16:45:47.869Z,1.45
2023-04-28T16:46:47.872Z,1.50
2023-04-28T16:47:46.970Z,1.46
2023-04-28T16:48:46.848Z,1.39
2023-04-28T16:49:47.977Z,1.55
2023-04-28T16:50:46.848Z,1.51
2023-04-28T16:51:47.791Z,1.30
2023-04-28T16:52:46.795Z,1.52
2023-04-28T16:53:47.806Z,1.81
2023-04-28T16:54:47.785Z,1.56
2023-04-28T16:55:47.833Z,1.62
2023-04-28T16:56:48.006Z,1.32
2023-04-28T16:57:47.751Z,1.34
2023-04-28T16:58:47.791Z,1.07
2023-04-28T16:59:47.860Z,1.24
2023-04-28T17:00:46.731Z,1.24
2023-04-28T17:01:47.834Z,1.49
2023-04-28T17:02:47.861Z,1.63
2023-04-28T17:03:47.885Z,1.93
2023-04-28T17:04:47.778Z,1.65
2023-04-28T17:05:48.325Z,1.44
2023-04-28T17:06:52.223Z,1.33
2023-04-28T17:07:51.059Z,1.53
2023-04-28T17:10:10.917Z,1.47
2023-04-28T17:11:10.371Z,1.39
2023-04-28T17:12:10.394Z,1.28
2023-04-28T17:13:08.376Z,1.55
2023-04-28T17:14:07.215Z,1.53
2023-04-28T17:15:07.996Z,1.61
2023-04-28T17:16:07.727Z,1.69
2023-04-28T17:17:11.362Z,1.16
2023-04-28T17:18:08.152Z,1.64
2023-04-28T17:19:08.385Z,1.53
2023-04-28T17:20:07.465Z,1.81
2023-04-28T17:21:07.439Z,1.58
2023-04-28T17:22:07.439Z,1.60
2023-04-28T17:23:07.470Z,1.51
2023-04-28T17:24:06.428Z,1.26
2023-04-28T17:25:06.437Z,1.37
2023-04-28T17:26:07.438Z,1.41
2023-04-28T17:27:07.399Z,1.29
2023-04-28T17:28:07.400Z,1.52
2023-04-28T17:29:06.471Z,1.13
2023-04-28T17:30:11.586Z,1.49
2023-04-28T17:31:07.908Z,1.29
2023-04-28T17:32:11.376Z,1.33
2023-04-28T17:33:12.262Z,1.48
2023-04-28T17:34:21.068Z,1.21
2023-04-28T17:35:26.554Z,1.64
2023-04-28T17:36:29.336Z,1.23
2023-04-28T17:37:29.670Z,1.81
2023-04-28T17:39:45.014Z,1.58
2023-04-28T17:40:45.024Z,1.34
2023-04-28T17:41:46.024Z,1.45
2023-04-28T17:42:45.978Z,1.16
2023-04-28T17:43:46.057Z,1.29
2023-04-28T17:44:44.985Z,1.19
2023-04-28T17:45:44.964Z,1.53
2023-04-28T17:46:46.047Z,1.56
2023-04-28T17:47:45.013Z,1.21
2023-04-28T17:48:45.955Z,1.14
2023-04-28T17:49:45.949Z,0.89
2023-04-28T17:50:44.938Z,1.33
2023-04-28T17:51:45.948Z,1.26
2023-04-28T17:52:44.950Z,1.49
2023-04-28T17:53:45.949Z,1.48
2023-04-28T17:54:45.929Z,1.58
2023-04-28T17:55:45.018Z,1.41
2023-04-28T17:56:45.944Z,1.30
2023-04-28T17:57:45.928Z,1.14
2023-04-28T17:58:44.920Z,1.58
2023-04-28T17:59:44.976Z,1.36
2023-04-28T18:00:45.884Z,1.13
2023-04-28T18:01:45.943Z,1.39
2023-04-28T18:02:45.884Z,1.49
2023-04-28T18:03:44.906Z,1.45
2023-04-28T18:04:44.860Z,1.19
2023-04-28T18:05:45.889Z,1.68
2023-04-28T18:06:44.892Z,1.14
2023-04-28T18:07:46.047Z,1.38
2023-04-28T18:08:44.846Z,1.22
2023-04-28T18:09:44.784Z,1.28
2023-04-28T18:10:45.770Z,1.20
2023-04-28T18:11:45.786Z,1.40
2023-04-28T18:12:45.796Z,1.20
2023-04-28T18:13:45.772Z,1.55
2023-04-28T18:14:45.778Z,1.65
2023-04-28T18:15:44.782Z,1.39
2023-04-28T18:16:45.846Z,1.28
2023-04-28T18:17:44.810Z,1.26
2023-04-28T18:18:45.835Z,1.46
2023-04-28T18:19:44.871Z,1.16
2023-04-28T18:20:45.904Z,1.25
2023-04-28T18:21:44.922Z,1.45
2023-04-28T18:22:45.939Z,1.47
2023-04-28T18:23:45.979Z,1.51
2023-04-28T18:24:46.002Z,1.37
2023-04-28T18:25:46.020Z,1.21
2023-04-28T18:26:46.139Z,1.25
2023-04-28T18:27:45.133Z,1.39
2023-04-28T18:28:46.179Z,1.14
2023-04-28T18:29:46.210Z,1.37
2023-04-28T18:30:46.285Z,1.28
2023-04-28T18:31:46.467Z,1.19